Time;durP1;ratioP1;P1;durP2;ratioP2;P2;SDS_P1;SDS_P2;PMS_P1;PMS_P2;Temp;Humidity;BMP_temperature;BMP_pressure;BME280_temperature;BME280_humidity;BME280_pressure;Samples;Min_cycle;Max_cycle;Signal;HPM_P1;HPM_P2
2022/11/30 00:02:22;;;;;;;39.87;31.40;;;9.30;62.50;;;;;;20553;6840;311151;-76
2022/11/30 00:04:47;;;;;;;40.10;31.40;;;9.50;61.80;;;;;;20543;6840;307628;-76
2022/11/30 00:07:13;;;;;;;39.33;30.10;;;9.70;61.20;;;;;;20551;6841;307936;-75
2022/11/30 00:09:38;;;;;;;42.60;32.30;;;9.90;60.70;;;;;;20526;6848;310406;-75
2022/11/30 00:12:04;;;;;;;41.23;32.70;;;10.00;59.10;;;;;;20531;6843;280784;-75
2022/11/30 00:14:30;;;;;;;38.93;27.00;;;10.00;58.50;;;;;;20739;6848;117734;-75
2022/11/30 00:16:55;;;;;;;35.53;24.93;;;9.80;60.00;;;;;;20785;6833;117592;-75
2022/11/30 00:19:21;;;;;;;42.08;31.98;;;9.40;60.90;;;;;;20576;6834;295596;-75
2022/11/30 00:21:48;;;;;;;44.90;33.35;;;9.40;61.40;;;;;;20560;6834;278622;-75
2022/11/30 00:24:13;;;;;;;43.03;32.50;;;9.50;61.00;;;;;;20582;6834;279391;-75
2022/11/30 00:26:39;;;;;;;40.58;28.25;;;9.70;60.70;;;;;;20793;6834;117786;-75
2022/11/30 00:29:04;;;;;;;40.13;26.13;;;9.50;60.70;;;;;;20787;6834;117974;-75
2022/11/30 00:31:30;;;;;;;35.50;24.37;;;9.20;61.50;;;;;;20786;6834;117318;-75
2022/11/30 00:33:57;;;;;;;37.22;25.65;;;8.90;62.30;;;;;;20775;6834;117895;-75
2022/11/30 00:36:22;;;;;;;46.65;32.45;;;8.60;63.00;;;;;;20568;6834;335927;-75
2022/11/30 00:38:48;;;;;;;42.47;26.60;;;8.70;63.30;;;;;;20787;6834;117454;-75
2022/11/30 00:41:14;;;;;;;35.17;24.63;;;8.70;63.20;;;;;;20777;6834;117795;-75
2022/11/30 00:43:39;;;;;;;42.07;26.17;;;8.50;63.70;;;;;;20779;6834;119324;-75
2022/11/30 00:46:05;;;;;;;37.05;23.85;;;8.40;64.40;;;;;;20769;6834;118285;-75
2022/11/30 00:48:30;;;;;;;39.67;24.77;;;8.20;64.80;;;;;;20786;6834;117338;-75
2022/11/30 00:50:57;;;;;;;45.43;33.53;;;8.30;65.20;;;;;;20574;6834;278614;-75
2022/11/30 00:53:23;;;;;;;46.35;33.38;;;8.70;64.50;;;;;;20572;6831;294096;-75
2022/11/30 00:55:49;;;;;;;39.50;27.23;;;8.70;64.10;;;;;;20773;6833;120745;-75
2022/11/30 00:58:15;;;;;;;35.87;25.60;;;8.70;64.10;;;;;;20788;6833;117506;-75
2022/11/30 01:00:40;;;;;;;45.88;32.50;;;8.50;64.30;;;;;;20571;6833;336363;-75
2022/11/30 01:03:07;;;;;;;37.27;25.50;;;8.70;64.50;;;;;;20794;6833;117502;-75
2022/11/30 01:05:33;;;;;;;44.75;31.15;;;8.80;64.20;;;;;;20569;6833;279158;-75
2022/11/30 01:07:59;;;;;;;48.97;33.67;;;8.80;64.20;;;;;;20556;6833;311629;-75
2022/11/30 01:10:24;;;;;;;47.25;33.00;;;9.00;63.60;;;;;;20576;6833;277582;-75
2022/11/30 01:12:50;;;;;;;38.63;25.93;;;9.30;62.80;;;;;;20787;6833;117345;-75
2022/11/30 01:15:16;;;;;;;36.97;24.97;;;9.20;62.80;;;;;;20786;6833;117477;-75
2022/11/30 01:17:41;;;;;;;42.58;30.80;;;8.90;63.60;;;;;;20586;6833;310663;-75
2022/11/30 01:20:07;;;;;;;46.90;32.53;;;8.90;63.70;;;;;;20570;6833;277763;-75
2022/11/30 01:22:32;;;;;;;43.85;31.65;;;9.10;63.00;;;;;;20583;6833;307709;-75
2022/11/30 01:24:58;;;;;;;41.65;26.33;;;9.40;62.40;;;;;;20788;6833;117279;-75
2022/11/30 01:27:24;;;;;;;42.78;30.10;;;9.30;62.40;;;;;;20584;6833;308941;-75
2022/11/30 01:29:49;;;;;;;34.47;24.20;;;9.30;62.70;;;;;;20768;6834;119438;-75
2022/11/30 01:32:15;;;;;;;38.57;24.33;;;9.10;62.90;;;;;;20785;6834;117775;-75
2022/11/30 01:34:40;;;;;;;36.30;28.23;;;8.90;63.80;;;;;;20571;6834;305567;-75
2022/11/30 01:37:06;;;;;;;38.07;24.60;;;8.90;63.90;;;;;;20787;6834;118803;-74
2022/11/30 01:39:32;;;;;;;30.77;22.13;;;8.90;63.80;;;;;;20790;6834;121382;-75
2022/11/30 01:41:58;;;;;;;38.60;28.87;;;8.70;64.20;;;;;;20551;6834;308534;-75
2022/11/30 01:44:25;;;;;;;40.00;29.13;;;8.80;64.30;;;;;;20572;6834;307173;-75
2022/11/30 01:46:59;;;;;;;35.47;23.70;;;9.00;63.20;;;;;;20777;6834;117615;-75
2022/11/30 01:49:27;;;;;;;33.00;21.47;;;9.00;63.20;;;;;;20780;6834;117702;-76
2022/11/30 01:51:59;;;;;;;31.43;21.67;;;8.70;64.00;;;;;;20764;6834;120901;-75
2022/11/30 01:54:28;;;;;;;28.53;21.23;;;8.50;64.70;;;;;;20778;6834;118568;-76
2022/11/30 01:56:54;;;;;;;27.87;20.57;;;8.30;65.30;;;;;;20768;6834;117807;-75
2022/11/30 01:59:20;;;;;;;30.05;19.95;;;8.10;66.50;;;;;;20779;6834;117691;-75
2022/11/30 02:01:45;;;;;;;27.03;19.03;;;8.10;66.50;;;;;;20763;6834;117636;-75
2022/11/30 02:04:18;;;;;;;29.63;20.50;;;7.90;66.70;;;;;;20786;6832;120179;-75
2022/11/30 02:06:44;;;;;;;37.67;26.05;;;7.90;67.10;;;;;;20575;6833;309054;-75
2022/11/30 02:09:11;;;;;;;33.63;26.25;;;8.20;67.10;;;;;;20582;6833;277794;-76
2022/11/30 02:11:36;;;;;;;31.27;21.53;;;8.70;65.80;;;;;;20784;6833;117399;-76
2022/11/30 02:14:22;;;;;;;31.45;25.45;;;8.70;65.80;;;;;;20553;6833;307152;-76
2022/11/30 02:17:14;;;;;;;31.03;20.97;;;8.80;64.90;;;;;;20782;6833;120479;-76
2022/11/30 02:19:49;;;;;;;31.13;20.27;;;8.80;64.70;;;;;;20772;6833;118839;-76
2022/11/30 02:22:37;;;;;;;26.50;19.17;;;8.50;65.20;;;;;;20543;6833;119702;-75
2022/11/30 02:25:33;;;;;;;29.43;24.03;;;8.30;65.80;;;;;;20572;6833;308178;-76
2022/11/30 02:28:19;;;;;;;27.00;20.13;;;8.50;65.40;;;;;;20761;6833;117984;-76
2022/11/30 02:30:44;;;;;;;30.90;24.33;;;8.50;65.10;;;;;;20574;6833;300965;-76
2022/11/30 02:33:10;;;;;;;25.80;19.67;;;8.70;64.60;;;;;;20766;6833;117442;-76
2022/11/30 02:35:35;;;;;;;30.23;24.40;;;8.70;64.60;;;;;;20566;6833;307018;-76
2022/11/30 02:38:01;;;;;;;24.05;18.65;;;8.80;64.20;;;;;;20750;6833;117942;-76
2022/11/30 02:40:27;;;;;;;28.77;19.33;;;8.80;64.20;;;;;;20770;6833;117858;-76
2022/11/30 02:42:52;;;;;;;27.17;18.10;;;8.60;64.60;;;;;;20795;6834;119274;-77
2022/11/30 02:45:21;;;;;;;31.03;23.53;;;8.40;65.20;;;;;;20504;6834;300988;-77
2022/11/30 02:47:56;;;;;;;30.50;24.50;;;8.50;65.10;;;;;;20533;6834;308169;-76
2022/11/30 02:50:32;;;;;;;25.97;19.37;;;8.90;64.20;;;;;;20756;6834;118647;-76
2022/11/30 02:52:57;;;;;;;28.10;22.70;;;8.90;64.00;;;;;;20561;6834;307389;-76
2022/11/30 02:55:23;;;;;;;28.27;20.07;;;9.00;63.90;;;;;;20779;6834;117313;-76
2022/11/30 02:57:49;;;;;;;32.37;24.27;;;9.00;63.30;;;;;;20533;6834;307772;-76
2022/11/30 03:00:16;;;;;;;30.98;24.67;;;9.30;63.00;;;;;;20570;6834;309777;-75
2022/11/30 03:02:41;;;;;;;25.80;19.13;;;9.20;62.90;;;;;;20781;6834;118670;-76
2022/11/30 03:05:07;;;;;;;29.67;23.87;;;9.10;62.80;;;;;;20574;6834;278476;-76
2022/11/30 03:07:32;;;;;;;29.43;23.70;;;9.20;62.90;;;;;;20575;6834;309359;-76
2022/11/30 03:09:59;;;;;;;24.05;19.58;;;9.30;62.20;;;;;;20777;6834;119765;-75
2022/11/30 03:12:24;;;;;;;30.30;23.27;;;9.20;62.10;;;;;;20581;6834;278595;-76
2022/11/30 03:14:51;;;;;;;26.83;18.90;;;9.20;62.50;;;;;;20790;6831;117757;-76
2022/11/30 03:17:16;;;;;;;27.00;22.40;;;9.10;62.50;;;;;;20567;6833;307230;-75
2022/11/30 03:19:42;;;;;;;27.85;22.98;;;9.20;62.30;;;;;;20577;6833;310203;-76
2022/11/30 03:22:07;;;;;;;24.17;18.80;;;9.40;61.90;;;;;;20761;6833;117908;-76
2022/11/30 03:24:33;;;;;;;24.17;21.13;;;9.30;62.10;;;;;;20569;6833;317310;-76
2022/11/30 03:26:58;;;;;;;26.58;21.90;;;9.30;62.20;;;;;;20567;6833;307164;-75
2022/11/30 03:29:24;;;;;;;21.17;17.53;;;9.50;61.70;;;;;;20783;6833;118252;-76
2022/11/30 03:31:51;;;;;;;25.48;21.50;;;9.30;61.80;;;;;;20561;6833;302303;-75
2022/11/30 03:34:16;;;;;;;24.63;18.30;;;9.30;62.00;;;;;;20789;6833;117497;-76
2022/11/30 03:36:43;;;;;;;23.53;16.83;;;8.90;62.80;;;;;;20785;6833;117336;-75
2022/11/30 03:39:08;;;;;;;19.47;16.37;;;8.90;62.80;;;;;;20778;6833;118142;-76
2022/11/30 03:41:34;;;;;;;24.83;20.30;;;8.70;63.70;;;;;;20579;6833;306690;-76
2022/11/30 03:43:59;;;;;;;21.57;17.57;;;8.80;63.60;;;;;;20765;6833;117609;-76
2022/11/30 03:46:26;;;;;;;23.30;20.53;;;8.80;64.00;;;;;;20578;6833;277714;-76
2022/11/30 03:48:50;;;;;;;23.80;20.90;;;8.90;63.20;;;;;;20570;6833;309489;-76
2022/11/30 03:51:16;;;;;;;23.70;20.77;;;9.20;62.60;;;;;;20571;6833;307135;-76
2022/11/30 03:53:42;;;;;;;23.43;17.83;;;9.30;62.40;;;;;;20784;6834;117292;-76
2022/11/30 03:56:08;;;;;;;23.60;19.60;;;9.30;62.40;;;;;;20551;6834;335847;-76
2022/11/30 03:58:34;;;;;;;24.13;17.67;;;9.30;62.40;;;;;;20786;6834;117329;-76
2022/11/30 04:00:59;;;;;;;20.27;16.15;;;9.20;62.50;;;;;;20779;6834;117726;-76
2022/11/30 04:03:25;;;;;;;20.20;15.17;;;8.90;63.10;;;;;;20782;6834;123735;-76
2022/11/30 04:05:51;;;;;;;19.42;15.65;;;8.50;64.50;;;;;;20772;6834;117990;-76
2022/11/30 04:08:16;;;;;;;21.97;15.50;;;8.50;64.50;;;;;;20795;6834;117710;-76
2022/11/30 04:10:42;;;;;;;19.37;15.93;;;8.40;65.00;;;;;;20797;6834;118413;-76
2022/11/30 04:13:08;;;;;;;41.50;33.50;;;8.30;65.30;;;;;;20571;6834;308010;-76
2022/11/30 04:15:33;;;;;;;24.05;21.37;;;8.40;65.20;;;;;;20582;6834;277674;-76
2022/11/30 04:17:59;;;;;;;23.20;17.33;;;8.80;64.20;;;;;;20772;6834;118453;-76
2022/11/30 04:20:25;;;;;;;24.00;18.73;;;8.80;63.80;;;;;;20573;6834;338914;-76
2022/11/30 04:22:51;;;;;;;21.07;16.73;;;8.90;63.80;;;;;;20781;6834;117376;-76
2022/11/30 04:25:18;;;;;;;26.53;20.20;;;8.90;63.60;;;;;;20577;6834;277272;-77
2022/11/30 04:27:43;;;;;;;22.30;19.75;;;9.00;63.40;;;;;;20559;6832;282151;-78
2022/11/30 04:30:10;;;;;;;20.98;16.95;;;9.30;62.50;;;;;;20649;6833;119751;-77
2022/11/30 04:32:36;;;;;;;22.20;15.27;;;9.20;62.40;;;;;;20789;6833;119282;-77
2022/11/30 04:35:02;;;;;;;19.27;14.57;;;8.70;64.10;;;;;;20792;6833;117223;-78
2022/11/30 04:37:28;;;;;;;19.70;17.60;;;8.60;64.00;;;;;;20572;6833;337208;-78
2022/11/30 04:39:54;;;;;;;16.97;15.17;;;8.80;64.00;;;;;;20768;6833;117713;-77
2022/11/30 04:42:19;;;;;;;21.40;17.90;;;8.70;63.80;;;;;;20571;6833;311423;-78
2022/11/30 04:44:45;;;;;;;20.93;16.13;;;8.90;63.50;;;;;;20782;6833;117323;-77
2022/11/30 04:47:11;;;;;;;19.63;17.63;;;9.00;63.90;;;;;;20577;6833;299039;-76
2022/11/30 04:49:37;;;;;;;20.10;18.02;;;9.30;62.80;;;;;;20577;6833;307630;-77
2022/11/30 04:52:03;;;;;;;20.90;18.43;;;9.30;62.80;;;;;;20551;6833;329350;-78
2022/11/30 04:54:29;;;;;;;17.20;15.40;;;9.40;61.50;;;;;;20789;6833;117942;-77
2022/11/30 04:56:54;;;;;;;20.13;18.03;;;9.30;61.60;;;;;;20576;6833;279844;-77
2022/11/30 04:59:20;;;;;;;18.70;16.70;;;9.50;61.30;;;;;;20564;6833;308041;-77
2022/11/30 05:01:46;;;;;;;15.37;13.73;;;9.50;61.20;;;;;;20734;6833;127777;-76
2022/11/30 05:04:11;;;;;;;14.85;12.50;;;9.30;61.20;;;;;;20786;6834;117504;-78
2022/11/30 05:06:37;;;;;;;15.50;12.77;;;9.00;62.10;;;;;;20786;6834;117833;-77
2022/11/30 05:09:02;;;;;;;20.10;17.67;;;8.70;63.10;;;;;;20581;6834;337640;-77
2022/11/30 05:11:29;;;;;;;16.40;13.60;;;8.80;63.40;;;;;;20795;6834;117510;-77
2022/11/30 05:13:54;;;;;;;14.80;13.27;;;8.80;63.40;;;;;;20764;6834;119119;-77
2022/11/30 05:16:21;;;;;;;17.83;16.00;;;8.80;63.80;;;;;;20581;6834;278245;-77
2022/11/30 05:18:46;;;;;;;18.67;16.67;;;8.70;63.80;;;;;;20580;6834;279163;-77
2022/11/30 05:21:12;;;;;;;18.67;16.67;;;9.10;63.00;;;;;;20575;6834;279329;-77
2022/11/30 05:23:37;;;;;;;15.93;13.60;;;9.30;62.00;;;;;;20787;6834;117834;-77
2022/11/30 05:26:03;;;;;;;18.80;16.47;;;9.30;62.10;;;;;;20563;6834;286853;-77
2022/11/30 05:28:28;;;;;;;18.33;16.43;;;9.30;62.10;;;;;;20574;6834;306779;-77
2022/11/30 05:30:54;;;;;;;18.03;16.17;;;9.40;61.60;;;;;;20578;6834;280105;-77
2022/11/30 05:33:23;;;;;;;18.33;16.58;;;9.60;60.80;;;;;;20575;6834;339888;-79
2022/11/30 05:35:48;;;;;;;18.93;16.93;;;9.70;60.20;;;;;;20516;6834;309536;-75
2022/11/30 05:38:15;;;;;;;17.00;14.10;;;9.80;60.10;;;;;;20789;6832;117821;-76
2022/11/30 05:40:41;;;;;;;14.67;13.17;;;9.60;60.50;;;;;;20794;6833;118157;-77
2022/11/30 05:43:06;;;;;;;17.10;15.40;;;9.30;61.50;;;;;;20581;6833;288642;-78
2022/11/30 05:45:32;;;;;;;17.87;16.03;;;9.30;61.60;;;;;;20574;6833;307306;-76
2022/11/30 05:47:57;;;;;;;18.07;16.23;;;9.50;61.10;;;;;;20541;6833;277717;-77
2022/11/30 05:50:23;;;;;;;17.77;15.98;;;9.60;60.40;;;;;;20562;6833;339891;-77
2022/11/30 05:52:49;;;;;;;14.77;12.97;;;9.60;60.30;;;;;;20797;6833;117335;-77
2022/11/30 05:55:15;;;;;;;18.50;14.60;;;9.50;60.20;;;;;;20785;6833;118459;-77
2022/11/30 05:57:40;;;;;;;17.10;15.40;;;9.20;61.10;;;;;;20579;6833;307067;-76
2022/11/30 06:00:06;;;;;;;17.30;15.53;;;9.20;61.30;;;;;;20774;6833;120570;-77
2022/11/30 06:02:33;;;;;;;34.40;26.00;;;8.80;62.30;;;;;;20785;6833;121375;-76
2022/11/30 06:04:58;;;;;;;16.07;13.57;;;8.80;62.30;;;;;;20795;6833;117490;-78
2022/11/30 06:07:24;;;;;;;13.77;12.20;;;8.60;63.00;;;;;;20787;6833;118363;-79
2022/11/30 06:09:49;;;;;;;18.25;15.52;;;8.40;63.70;;;;;;20557;6833;321991;-77
2022/11/30 06:12:15;;;;;;;17.12;13.43;;;8.60;64.00;;;;;;20791;6833;117571;-76
2022/11/30 06:14:41;;;;;;;15.30;11.83;;;8.60;63.60;;;;;;20647;6833;121672;-77
2022/11/30 06:17:08;;;;;;;18.33;16.42;;;8.60;64.00;;;;;;20400;6834;325056;-77
2022/11/30 06:19:34;;;;;;;17.07;14.03;;;8.60;63.90;;;;;;20791;6834;117291;-75
2022/11/30 06:22:02;;;;;;;19.13;17.03;;;8.60;63.70;;;;;;20544;6834;281604;-80
2022/11/30 06:24:28;;;;;;;17.50;14.13;;;8.70;63.70;;;;;;20784;6834;117503;-79
2022/11/30 06:26:53;;;;;;;18.57;16.67;;;8.70;63.40;;;;;;20565;6834;280299;-76
2022/11/30 06:29:19;;;;;;;18.48;16.27;;;8.80;63.40;;;;;;20551;6834;337221;-78
2022/11/30 06:31:45;;;;;;;16.02;14.07;;;9.00;62.50;;;;;;20771;6834;117507;-79
2022/11/30 06:34:12;;;;;;;18.20;13.97;;;9.00;62.50;;;;;;20791;6834;117399;-79
2022/11/30 06:36:38;;;;;;;19.60;17.55;;;8.80;63.10;;;;;;20587;6834;306651;-80
2022/11/30 06:39:03;;;;;;;19.23;16.87;;;8.80;63.20;;;;;;20581;6834;301902;-76
2022/11/30 06:41:29;;;;;;;16.83;13.87;;;9.10;62.50;;;;;;20793;6834;117519;-79
2022/11/30 06:43:54;;;;;;;17.67;15.77;;;9.00;63.10;;;;;;20564;6834;318903;-79
2022/11/30 06:46:21;;;;;;;18.67;14.70;;;9.00;62.50;;;;;;20791;6834;119491;-75
2022/11/30 06:48:46;;;;;;;18.53;16.53;;;8.90;62.60;;;;;;20579;6834;325119;-77
2022/11/30 06:51:12;;;;;;;17.80;16.10;;;9.20;61.90;;;;;;20577;6832;281691;-77
2022/11/30 06:53:37;;;;;;;19.10;17.10;;;9.20;61.90;;;;;;20584;6833;340924;-76
2022/11/30 06:56:03;;;;;;;18.92;17.02;;;9.40;61.30;;;;;;20561;6833;278236;-76
2022/11/30 06:58:29;;;;;;;19.83;17.77;;;9.60;60.60;;;;;;20576;6833;328935;-76
2022/11/30 07:00:54;;;;;;;18.47;15.07;;;9.70;60.20;;;;;;20784;6833;117716;-77
2022/11/30 07:03:20;;;;;;;18.67;16.77;;;9.50;60.50;;;;;;20562;6833;338143;-76
2022/11/30 07:05:45;;;;;;;27.03;21.13;;;9.40;60.90;;;;;;20557;6833;307246;-76
2022/11/30 07:08:15;;;;;;;24.05;21.52;;;9.70;60.20;;;;;;20583;6833;278053;-77
2022/11/30 07:10:44;;;;;;;23.65;21.20;;;9.70;60.20;;;;;;20565;6833;340762;-76
2022/11/30 07:13:13;;;;;;;17.93;13.97;;;9.80;60.10;;;;;;20780;6833;120955;-76
2022/11/30 07:15:38;;;;;;;19.70;14.67;;;9.50;60.20;;;;;;20752;6833;119145;-76
2022/11/30 07:18:04;;;;;;;16.00;13.50;;;9.20;61.10;;;;;;20758;6833;117349;-76
2022/11/30 07:20:29;;;;;;;16.73;14.13;;;8.90;62.20;;;;;;20778;6833;119540;-76
2022/11/30 07:22:56;;;;;;;189.70;134.17;;;8.80;63.20;;;;;;20577;6833;278259;-76
2022/11/30 07:28:07;;;;;;;24.33;21.83;;;9.10;62.30;;;;;;20767;6834;119221;-76
2022/11/30 07:30:33;;;;;;;22.10;17.37;;;9.00;62.10;;;;;;20804;6834;117292;-76
2022/11/30 07:32:59;;;;;;;20.75;18.45;;;8.80;62.60;;;;;;20586;6834;287790;-76
2022/11/30 07:35:24;;;;;;;26.55;23.15;;;8.90;62.80;;;;;;20590;6834;277256;-76
2022/11/30 07:37:50;;;;;;;22.87;19.20;;;9.10;62.00;;;;;;20784;6834;117268;-76
2022/11/30 07:40:15;;;;;;;28.37;19.53;;;9.00;61.90;;;;;;20791;6834;117801;-76
2022/11/30 07:42:41;;;;;;;17.30;13.73;;;8.70;62.50;;;;;;20795;6834;117307;-76
2022/11/30 07:45:07;;;;;;;22.30;15.93;;;8.50;63.00;;;;;;20797;6834;118600;-76
2022/11/30 07:47:32;;;;;;;17.43;15.73;;;8.30;63.60;;;;;;20580;6834;337136;-76
2022/11/30 07:49:58;;;;;;;29.40;21.73;;;8.50;63.70;;;;;;20560;6834;307949;-76
2022/11/30 07:52:24;;;;;;;22.17;17.50;;;8.80;62.50;;;;;;20782;6834;117956;-76
2022/11/30 07:54:50;;;;;;;40.77;27.20;;;8.80;62.50;;;;;;20583;6834;277345;-76
2022/11/30 07:57:15;;;;;;;46.40;29.33;;;8.90;62.40;;;;;;20788;6834;117350;-77
2022/11/30 07:59:41;;;;;;;21.27;15.65;;;8.80;62.40;;;;;;20787;6834;117368;-76
2022/11/30 08:02:06;;;;;;;18.87;16.85;;;8.60;62.90;;;;;;20554;6832;333279;-76
2022/11/30 08:04:32;;;;;;;20.87;17.93;;;8.70;63.00;;;;;;20766;6833;121428;-76
2022/11/30 08:06:58;;;;;;;18.80;17.02;;;8.70;62.90;;;;;;20573;6833;308490;-76
2022/11/30 08:09:23;;;;;;;27.37;24.40;;;8.80;62.20;;;;;;20570;6833;308522;-76
2022/11/30 08:11:49;;;;;;;29.77;26.57;;;9.10;61.10;;;;;;20545;6833;307656;-77
2022/11/30 08:14:14;;;;;;;36.45;32.85;;;9.30;60.30;;;;;;20565;6833;308182;-76
2022/11/30 08:16:42;;;;;;;21.70;19.37;;;9.50;59.60;;;;;;20783;6833;117264;-76
2022/11/30 08:19:06;;;;;;;17.27;15.68;;;9.40;60.00;;;;;;20562;6833;338099;-77
2022/11/30 08:21:31;;;;;;;15.02;13.43;;;9.50;59.80;;;;;;20775;6833;117181;-76
2022/11/30 08:23:57;;;;;;;14.63;13.23;;;9.30;60.00;;;;;;20768;6833;147531;-77
2022/11/30 08:26:26;;;;;;;13.43;12.00;;;9.10;60.50;;;;;;20785;6833;117577;-76
2022/11/30 08:28:52;;;;;;;15.40;13.90;;;9.00;60.70;;;;;;20552;6833;309581;-77
2022/11/30 08:31:19;;;;;;;16.70;15.00;;;9.00;60.70;;;;;;20576;6833;279773;-76
2022/11/30 08:33:44;;;;;;;18.07;16.33;;;9.30;59.70;;;;;;20547;6833;309535;-78
2022/11/30 08:36:11;;;;;;;16.27;14.77;;;9.80;58.00;;;;;;20573;6833;279063;-78
2022/11/30 08:38:37;;;;;;;15.90;14.07;;;9.80;57.90;;;;;;20758;6833;117274;-77
2022/11/30 08:41:03;;;;;;;14.57;13.13;;;9.70;58.30;;;;;;20776;6834;117540;-76
2022/11/30 08:43:29;;;;;;;17.40;15.60;;;9.30;59.90;;;;;;20788;6834;117402;-77
2022/11/30 08:45:55;;;;;;;12.50;10.83;;;9.30;59.80;;;;;;20770;6833;118464;-76
2022/11/30 08:48:20;;;;;;;12.25;11.07;;;9.10;60.40;;;;;;20815;6834;117927;-77
2022/11/30 08:50:46;;;;;;;14.68;13.27;;;8.90;60.70;;;;;;20592;6834;336797;-76
2022/11/30 08:53:11;;;;;;;14.15;12.65;;;9.10;59.30;;;;;;20804;6834;121741;-77
2022/11/30 08:55:37;;;;;;;14.70;13.30;;;9.10;60.10;;;;;;20593;6834;334883;-77
2022/11/30 08:58:03;;;;;;;13.30;11.90;;;9.30;58.70;;;;;;20764;6834;117606;-77
2022/11/30 09:00:28;;;;;;;14.98;13.62;;;9.40;59.00;;;;;;20590;6834;339572;-77
2022/11/30 09:02:55;;;;;;;13.37;12.07;;;9.50;58.40;;;;;;20780;6834;117508;-77
2022/11/30 09:05:21;;;;;;;14.73;13.32;;;9.50;58.70;;;;;;20582;6834;277594;-77
2022/11/30 09:07:46;;;;;;;16.02;14.43;;;9.70;57.90;;;;;;20566;6834;307684;-77
2022/11/30 09:10:12;;;;;;;16.00;12.57;;;10.00;56.10;;;;;;20791;6834;117529;-77
2022/11/30 09:12:38;;;;;;;13.10;11.00;;;9.70;58.10;;;;;;20786;6831;119029;-77
2022/11/30 09:15:04;;;;;;;12.77;11.47;;;9.70;58.10;;;;;;20773;6833;117296;-76
2022/11/30 09:17:29;;;;;;;15.95;14.40;;;9.50;58.90;;;;;;20565;6833;307278;-77
2022/11/30 09:19:55;;;;;;;16.23;14.73;;;9.60;58.20;;;;;;20521;6833;306416;-77
2022/11/30 09:22:20;;;;;;;16.27;14.80;;;9.90;57.70;;;;;;20539;6833;340514;-77
2022/11/30 09:24:46;;;;;;;14.40;13.10;;;10.20;54.90;;;;;;20552;6833;278247;-77
2022/11/30 09:27:12;;;;;;;13.30;12.03;;;10.30;55.00;;;;;;20782;6833;117550;-77
2022/11/30 09:29:37;;;;;;;12.23;11.13;;;10.20;55.40;;;;;;20786;6833;119611;-76
2022/11/30 09:32:03;;;;;;;14.20;12.80;;;9.90;57.10;;;;;;20557;6833;328560;-77
2022/11/30 09:34:28;;;;;;;12.77;11.57;;;10.00;55.40;;;;;;20780;6833;121280;-77
2022/11/30 09:36:54;;;;;;;12.85;11.65;;;9.90;56.70;;;;;;20568;6833;309731;-76
2022/11/30 09:39:23;;;;;;;12.10;11.10;;;10.00;54.50;;;;;;20566;6833;308788;-77
2022/11/30 09:42:15;;;;;;;11.27;10.17;;;10.20;53.40;;;;;;20768;6833;120455;-77
2022/11/30 09:45:00;;;;;;;11.47;10.27;;;10.10;53.80;;;;;;20791;6833;119238;-77
2022/11/30 09:47:26;;;;;;;11.87;10.67;;;9.80;55.80;;;;;;20786;6833;117598;-75
2022/11/30 09:49:52;;;;;;;13.62;10.63;;;9.60;56.90;;;;;;20745;6833;117375;-77
2022/11/30 09:52:22;;;;;;;14.57;13.18;;;9.60;57.30;;;;;;20566;6834;310479;-76
2022/11/30 09:54:48;;;;;;;12.27;11.00;;;9.60;57.20;;;;;;20775;6834;117297;-77
2022/11/30 09:57:26;;;;;;;13.10;11.37;;;9.60;57.30;;;;;;20782;6834;117863;-76
2022/11/30 09:59:58;;;;;;;11.87;10.67;;;9.50;57.70;;;;;;20737;6834;117429;-77
2022/11/30 10:02:24;;;;;;;12.03;10.67;;;9.30;58.10;;;;;;20776;6834;118710;-77
2022/11/30 10:04:49;;;;;;;11.12;10.02;;;9.20;58.50;;;;;;20759;6834;122136;-76
2022/11/30 10:07:35;;;;;;;12.17;11.07;;;9.10;59.00;;;;;;20791;6834;118374;-77
2022/11/30 10:10:01;;;;;;;15.13;13.83;;;9.30;59.40;;;;;;20551;6834;308626;-77
2022/11/30 10:12:29;;;;;;;14.57;12.93;;;9.30;58.90;;;;;;20781;6834;117580;-77
2022/11/30 10:15:03;;;;;;;13.87;12.57;;;9.40;59.00;;;;;;20779;6834;118834;-76
2022/11/30 10:17:31;;;;;;;16.23;14.80;;;9.40;59.20;;;;;;20541;6834;277332;-76
2022/11/30 10:20:16;;;;;;;14.10;12.63;;;9.60;58.60;;;;;;20766;6834;121520;-76
2022/11/30 10:23:04;;;;;;;13.57;12.17;;;9.70;58.60;;;;;;20772;6834;117423;-77
2022/11/30 10:25:54;;;;;;;16.12;14.63;;;9.80;58.00;;;;;;20581;6832;277784;-77
2022/11/30 10:28:33;;;;;;;14.87;13.33;;;9.70;57.90;;;;;;20780;6833;117409;-76
2022/11/30 10:30:58;;;;;;;18.80;16.87;;;9.80;58.10;;;;;;20294;6833;321891;-76
2022/11/30 10:33:24;;;;;;;14.63;12.70;;;10.00;56.90;;;;;;20784;6833;118906;-76
2022/11/30 10:35:50;;;;;;;15.05;12.40;;;10.00;57.00;;;;;;20754;6833;118606;-77
2022/11/30 10:38:23;;;;;;;14.93;12.77;;;9.60;58.60;;;;;;20782;6833;120012;-76
2022/11/30 10:41:12;;;;;;;15.10;13.30;;;9.60;58.60;;;;;;20789;6833;117335;-76
2022/11/30 10:43:47;;;;;;;18.30;14.67;;;9.50;59.00;;;;;;20783;6833;117308;-76
2022/11/30 10:46:13;;;;;;;18.73;16.43;;;9.30;59.20;;;;;;20564;6833;281130;-76
2022/11/30 10:48:39;;;;;;;18.80;16.95;;;9.80;58.10;;;;;;20553;6833;307334;-76
2022/11/30 10:51:05;;;;;;;16.70;14.97;;;9.80;58.10;;;;;;20776;6833;118261;-76
2022/11/30 10:53:30;;;;;;;18.63;16.83;;;9.80;58.00;;;;;;20571;6833;282591;-76
2022/11/30 10:56:06;;;;;;;19.57;17.70;;;9.90;57.10;;;;;;20553;6833;279681;-77
2022/11/30 10:58:32;;;;;;;18.08;16.37;;;10.10;55.70;;;;;;20535;6833;278669;-76
2022/11/30 11:01:05;;;;;;;15.57;14.07;;;10.20;54.50;;;;;;20759;6833;120281;-76
2022/11/30 11:03:30;;;;;;;15.57;14.10;;;10.20;54.50;;;;;;20781;6834;119682;-75
2022/11/30 11:06:13;;;;;;;15.90;14.38;;;9.90;56.20;;;;;;20563;6834;336913;-76
2022/11/30 11:08:38;;;;;;;15.00;13.50;;;9.90;55.40;;;;;;20790;6834;117378;-76
2022/11/30 11:11:05;;;;;;;16.10;14.60;;;9.70;55.70;;;;;;20581;6834;325895;-75
2022/11/30 11:13:42;;;;;;;17.60;15.83;;;9.80;56.20;;;;;;20504;6834;279169;-76
2022/11/30 11:16:08;;;;;;;17.65;16.02;;;10.00;54.30;;;;;;20564;6834;339430;-78
2022/11/30 11:18:33;;;;;;;15.70;13.18;;;10.30;53.50;;;;;;20781;6834;119113;-79
2022/11/30 11:20:59;;;;;;;16.87;15.17;;;10.10;54.10;;;;;;20511;6834;303505;-77
2022/11/30 11:23:31;;;;;;;14.83;12.77;;;10.10;53.80;;;;;;20767;6834;118440;-77
2022/11/30 11:25:56;;;;;;;18.70;16.75;;;10.00;54.10;;;;;;20558;6834;308984;-77
2022/11/30 11:28:24;;;;;;;14.50;13.10;;;9.90;55.20;;;;;;20785;6834;118489;-79
2022/11/30 11:30:48;;;;;;;21.23;19.23;;;10.00;54.30;;;;;;20572;6834;313551;-77
2022/11/30 11:33:14;;;;;;;15.85;14.20;;;10.00;54.60;;;;;;20791;6834;118774;-78
2022/11/30 11:35:42;;;;;;;18.98;17.08;;;10.00;54.90;;;;;;20590;6832;306388;-75
2022/11/30 11:38:24;;;;;;;20.37;18.27;;;10.00;54.30;;;;;;20566;6833;307036;-77
2022/11/30 11:41:10;;;;;;;20.60;18.50;;;10.30;54.10;;;;;;20575;6833;308040;-76
2022/11/30 11:43:35;;;;;;;20.02;18.12;;;10.50;53.80;;;;;;20566;6833;336709;-76
2022/11/30 11:46:10;;;;;;;17.60;15.63;;;10.60;53.30;;;;;;20693;6833;120118;-77
2022/11/30 11:48:40;;;;;;;21.83;19.52;;;10.40;53.90;;;;;;20569;6833;336732;-77
2022/11/30 11:51:05;;;;;;;19.50;17.20;;;10.40;53.90;;;;;;20759;6833;117639;-78
2022/11/30 11:53:35;;;;;;;22.03;19.63;;;10.30;54.30;;;;;;20573;6833;277786;-78
2022/11/30 11:56:27;;;;;;;19.73;16.93;;;10.30;54.30;;;;;;20758;6833;118566;-78
2022/11/30 11:58:58;;;;;;;19.43;15.67;;;9.90;56.40;;;;;;20487;6833;119124;-76
2022/11/30 12:01:49;;;;;;;20.37;15.73;;;9.80;56.30;;;;;;20770;6833;117392;-76
2022/11/30 12:04:36;;;;;;;21.00;18.85;;;9.70;57.10;;;;;;20571;6833;308235;-76
2022/11/30 12:07:00;;;;;;;17.63;15.63;;;9.80;56.00;;;;;;20784;6833;117319;-75
2022/11/30 12:09:26;;;;;;;16.58;14.32;;;9.80;56.30;;;;;;20784;6833;119010;-77
2022/11/30 12:11:51;;;;;;;21.47;19.33;;;9.60;56.80;;;;;;20535;6833;306827;-76
2022/11/30 12:14:17;;;;;;;18.87;16.35;;;9.70;56.60;;;;;;20788;6834;118728;-75
2022/11/30 12:17:06;;;;;;;21.60;16.47;;;9.50;57.20;;;;;;20784;6834;118032;-77
2022/11/30 12:19:35;;;;;;;22.30;19.93;;;9.50;57.20;;;;;;20572;6834;307221;-78
2022/11/30 12:22:38;;;;;;;18.97;16.23;;;9.70;56.70;;;;;;20740;6834;118417;-77
2022/11/30 12:25:23;;;;;;;21.53;19.33;;;9.70;57.40;;;;;;20558;6834;299959;-77
2022/11/30 12:27:56;;;;;;;20.57;16.87;;;9.70;56.40;;;;;;20732;6834;121530;-77
2022/11/30 12:30:47;;;;;;;20.70;18.63;;;9.80;56.50;;;;;;20525;6834;278773;-76
2022/11/30 12:33:33;;;;;;;21.50;19.30;;;9.90;56.60;;;;;;20566;6834;279944;-79